Time;durP1;ratioP1;P1;durP2;ratioP2;P2;SDS_P1;SDS_P2;PMS_P1;PMS_P2;Temp;Humidity;BMP_temperature;BMP_pressure;BME280_temperature;BME280_humidity;BME280_pressure;Samples;Min_cycle;Max_cycle;Signal;HPM_P1;HPM_P2
2022/03/23 00:01:07;;;;;;;64.53;43.42;;;;;;;;;;5097402;28;20117;-75
2022/03/23 00:03:37;;;;;;;65.35;43.45;;;;;;;;;;5100953;28;20411;-75
2022/03/23 00:06:03;;;;;;;68.25;44.10;;;;;;;;;;5099367;28;20525;-75
2022/03/23 00:08:29;;;;;;;67.80;43.45;;;;;;;;;;5097667;28;21761;-74
2022/03/23 00:10:56;;;;;;;71.50;44.60;;;;;;;;;;5089492;28;20065;-74
2022/03/23 00:13:22;;;;;;;74.00;45.65;;;;;;;;;;5092088;28;20042;-74
2022/03/23 00:15:48;;;;;;;69.78;45.50;;;;;;;;;;5095705;28;20060;-74
2022/03/23 00:18:15;;;;;;;65.25;44.30;;;;;;;;;;5098144;28;20032;-74
2022/03/23 00:20:41;;;;;;;79.43;46.60;;;;;;;;;;5094922;28;20028;-74
2022/03/23 00:23:09;;;;;;;63.40;42.15;;;;;;;;;;5098917;28;20020;-74
2022/03/23 00:25:36;;;;;;;66.68;42.90;;;;;;;;;;5095161;28;20039;-75
2022/03/23 00:28:03;;;;;;;70.60;44.63;;;;;;;;;;5088046;28;20038;-75
2022/03/23 00:30:30;;;;;;;70.95;44.17;;;;;;;;;;5100113;28;20123;-75
2022/03/23 00:32:56;;;;;;;69.97;43.78;;;;;;;;;;5096733;28;20080;-74
2022/03/23 00:35:22;;;;;;;65.05;43.60;;;;;;;;;;5081559;28;20041;-74
2022/03/23 00:37:49;;;;;;;69.97;44.35;;;;;;;;;;5094627;28;20031;-74
2022/03/23 00:40:15;;;;;;;71.40;44.33;;;;;;;;;;5098689;28;20032;-74
2022/03/23 00:42:41;;;;;;;70.38;44.53;;;;;;;;;;5091710;28;20028;-75
2022/03/23 00:45:07;;;;;;;66.13;41.05;;;;;;;;;;5099025;28;20048;-74
2022/03/23 00:47:35;;;;;;;77.03;45.25;;;;;;;;;;5099364;28;20378;-74
2022/03/23 00:50:01;;;;;;;71.15;43.08;;;;;;;;;;5100530;28;20040;-75
2022/03/23 00:52:27;;;;;;;64.45;43.88;;;;;;;;;;5101041;28;20060;-74
2022/03/23 00:54:53;;;;;;;73.20;44.55;;;;;;;;;;5104823;28;20162;-74
2022/03/23 00:57:19;;;;;;;67.07;42.22;;;;;;;;;;5094974;28;20407;-74
2022/03/23 00:59:45;;;;;;;68.57;43.03;;;;;;;;;;5101716;28;20037;-75
2022/03/23 01:02:14;;;;;;;68.53;42.58;;;;;;;;;;5093602;28;20024;-75
2022/03/23 01:04:41;;;;;;;63.13;43.05;;;;;;;;;;5104700;28;20146;-75
2022/03/23 01:07:07;;;;;;;73.07;45.45;;;;;;;;;;5082086;28;20048;-74
2022/03/23 01:09:33;;;;;;;67.78;43.83;;;;;;;;;;5103595;28;20636;-74
2022/03/23 01:11:59;;;;;;;66.82;44.08;;;;;;;;;;5094667;28;20050;-74
2022/03/23 01:14:25;;;;;;;68.85;42.95;;;;;;;;;;5101957;28;20036;-74
2022/03/23 01:16:52;;;;;;;67.07;42.78;;;;;;;;;;5096095;28;20479;-74
2022/03/23 01:19:22;;;;;;;69.30;43.75;;;;;;;;;;5099581;28;20054;-74
2022/03/23 01:21:48;;;;;;;69.68;43.33;;;;;;;;;;5103779;28;20532;-74
2022/03/23 01:24:15;;;;;;;67.70;42.53;;;;;;;;;;5099151;28;20038;-74
2022/03/23 01:26:41;;;;;;;61.85;40.15;;;;;;;;;;5095891;28;20416;-74
2022/03/23 01:29:08;;;;;;;62.10;38.65;;;;;;;;;;5082994;28;20045;-74
2022/03/23 01:31:34;;;;;;;62.22;37.90;;;;;;;;;;5097441;28;20039;-74
2022/03/23 01:34:00;;;;;;;63.58;41.15;;;;;;;;;;5097208;28;20513;-74
2022/03/23 01:36:30;;;;;;;65.22;40.80;;;;;;;;;;5097879;28;20102;-74
2022/03/23 01:38:56;;;;;;;65.90;41.10;;;;;;;;;;5094407;28;20043;-74
2022/03/23 01:41:23;;;;;;;58.13;39.20;;;;;;;;;;5104456;28;20047;-75
2022/03/23 01:43:50;;;;;;;65.25;41.33;;;;;;;;;;5081187;28;20096;-74
2022/03/23 01:46:17;;;;;;;64.32;39.97;;;;;;;;;;5095758;28;20035;-74
2022/03/23 01:48:43;;;;;;;63.47;41.88;;;;;;;;;;5099349;28;20076;-74
2022/03/23 01:51:10;;;;;;;63.42;41.50;;;;;;;;;;5077977;28;20060;-74
2022/03/23 01:53:36;;;;;;;59.97;40.92;;;;;;;;;;5079871;28;20036;-74
2022/03/23 01:56:02;;;;;;;67.63;44.15;;;;;;;;;;5094256;28;20155;-76
2022/03/23 01:58:28;;;;;;;69.32;43.38;;;;;;;;;;5101916;28;20040;-75
2022/03/23 02:00:54;;;;;;;64.93;43.28;;;;;;;;;;5103735;28;20077;-74
2022/03/23 02:03:20;;;;;;;67.82;42.95;;;;;;;;;;5096312;28;20114;-74
2022/03/23 02:05:47;;;;;;;61.05;40.67;;;;;;;;;;5082300;28;20032;-74
2022/03/23 02:08:13;;;;;;;62.20;40.08;;;;;;;;;;5095736;28;20089;-75
2022/03/23 02:10:41;;;;;;;64.68;42.10;;;;;;;;;;5096658;28;20453;-75
2022/03/23 02:13:09;;;;;;;63.80;43.90;;;;;;;;;;5090910;28;20028;-75
2022/03/23 02:15:35;;;;;;;57.10;38.17;;;;;;;;;;5094427;28;20504;-74
2022/03/23 02:18:02;;;;;;;64.18;43.10;;;;;;;;;;5093960;28;20055;-75
2022/03/23 02:20:28;;;;;;;59.25;41.55;;;;;;;;;;5094631;28;20119;-74
2022/03/23 02:22:54;;;;;;;65.07;40.08;;;;;;;;;;5094124;28;20121;-74
2022/03/23 02:25:22;;;;;;;75.78;41.70;;;;;;;;;;5081958;28;20040;-74
2022/03/23 02:27:48;;;;;;;61.42;42.15;;;;;;;;;;5093433;28;20035;-74
2022/03/23 02:30:14;;;;;;;60.88;41.03;;;;;;;;;;5089628;28;20023;-74
2022/03/23 02:32:41;;;;;;;62.95;40.38;;;;;;;;;;5093508;28;20028;-74
2022/03/23 02:35:08;;;;;;;58.78;39.03;;;;;;;;;;5097949;28;20023;-74
2022/03/23 02:37:35;;;;;;;62.47;40.50;;;;;;;;;;5100428;28;20032;-74
2022/03/23 02:40:01;;;;;;;58.42;38.28;;;;;;;;;;5097834;28;20024;-74
2022/03/23 02:42:27;;;;;;;65.28;39.45;;;;;;;;;;5095026;28;20031;-74
2022/03/23 02:44:54;;;;;;;57.85;37.97;;;;;;;;;;5078435;28;20102;-74
2022/03/23 02:47:20;;;;;;;62.38;38.53;;;;;;;;;;5097167;28;20028;-74
2022/03/23 02:49:46;;;;;;;59.63;39.45;;;;;;;;;;5099667;28;20046;-75
2022/03/23 02:52:12;;;;;;;61.90;39.35;;;;;;;;;;5094597;28;20482;-74
2022/03/23 03:03:06;;;;;;;68.60;41.05;;;;;;;;;;5098584;28;20069;-74
2022/03/23 03:05:32;;;;;;;61.00;38.63;;;;;;;;;;5099788;28;20540;-74
2022/03/23 03:10:42;;;;;;;65.65;39.60;;;;;;;;;;5095891;28;20046;-75
2022/03/23 03:13:09;;;;;;;58.30;40.13;;;;;;;;;;5074559;28;20032;-75
2022/03/23 03:15:35;;;;;;;67.82;41.35;;;;;;;;;;5079719;28;20050;-75
2022/03/23 03:18:01;;;;;;;63.60;40.35;;;;;;;;;;5095105;28;20127;-74
2022/03/23 03:20:27;;;;;;;63.45;39.28;;;;;;;;;;5094834;28;20023;-75
2022/03/23 03:22:54;;;;;;;59.05;39.65;;;;;;;;;;5083427;28;20589;-74
2022/03/23 03:25:23;;;;;;;63.58;40.35;;;;;;;;;;5084883;28;20858;-75
2022/03/23 03:27:49;;;;;;;57.72;38.40;;;;;;;;;;5096635;28;20039;-75
2022/03/23 03:30:16;;;;;;;58.50;38.28;;;;;;;;;;5099859;28;20035;-75
2022/03/23 03:32:43;;;;;;;53.70;36.10;;;;;;;;;;5097541;28;20059;-75
2022/03/23 03:35:10;;;;;;;57.25;35.92;;;;;;;;;;5071774;28;21949;-75
2022/03/23 03:37:36;;;;;;;56.40;35.85;;;;;;;;;;5095753;28;20077;-75
2022/03/23 03:40:03;;;;;;;52.42;35.65;;;;;;;;;;5096394;28;20039;-74
2022/03/23 03:42:29;;;;;;;58.38;36.38;;;;;;;;;;5096762;28;20027;-74
2022/03/23 03:44:57;;;;;;;55.92;34.88;;;;;;;;;;5099649;28;20105;-75
2022/03/23 03:47:23;;;;;;;56.72;35.58;;;;;;;;;;5096862;28;20028;-75
2022/03/23 03:49:49;;;;;;;50.03;34.72;;;;;;;;;;5093468;28;20036;-75
2022/03/23 03:52:15;;;;;;;57.25;35.75;;;;;;;;;;5096156;28;20114;-75
2022/03/23 03:54:41;;;;;;;49.47;32.83;;;;;;;;;;5092742;28;20036;-75
2022/03/23 03:57:08;;;;;;;51.08;34.55;;;;;;;;;;5089219;28;20555;-75
2022/03/23 03:59:34;;;;;;;51.58;32.50;;;;;;;;;;5095085;28;20035;-75
2022/03/23 04:02:00;;;;;;;51.17;32.05;;;;;;;;;;5082883;28;20377;-75
2022/03/23 04:04:26;;;;;;;47.92;32.60;;;;;;;;;;5082213;28;20090;-75
2022/03/23 04:06:52;;;;;;;45.30;32.03;;;;;;;;;;5097422;28;20876;-75
2022/03/23 04:09:19;;;;;;;51.65;33.47;;;;;;;;;;5092566;28;20034;-75
2022/03/23 04:11:45;;;;;;;49.45;33.50;;;;;;;;;;5073421;28;20093;-75
2022/03/23 04:14:11;;;;;;;51.38;32.45;;;;;;;;;;5100181;28;20036;-75
2022/03/23 04:16:37;;;;;;;51.65;33.38;;;;;;;;;;5100908;28;20031;-75
2022/03/23 04:19:06;;;;;;;57.38;33.35;;;;;;;;;;5099738;28;20032;-75
2022/03/23 04:21:32;;;;;;;51.53;32.33;;;;;;;;;;5086437;28;20028;-75
2022/03/23 04:23:58;;;;;;;45.22;31.60;;;;;;;;;;5099720;28;20047;-75
2022/03/23 04:26:25;;;;;;;53.08;32.15;;;;;;;;;;5097122;28;20044;-75
2022/03/23 04:28:51;;;;;;;53.47;34.08;;;;;;;;;;5094119;28;20026;-74
2022/03/23 04:31:17;;;;;;;55.92;35.70;;;;;;;;;;5069051;28;20089;-75
2022/03/23 04:33:43;;;;;;;58.30;37.20;;;;;;;;;;5102284;28;20021;-75
2022/03/23 04:36:10;;;;;;;58.80;38.40;;;;;;;;;;5080421;28;20476;-75
2022/03/23 04:38:37;;;;;;;56.30;36.90;;;;;;;;;;5101682;28;20027;-75
2022/03/23 04:41:04;;;;;;;53.65;34.10;;;;;;;;;;5101306;28;20467;-75
2022/03/23 04:43:30;;;;;;;59.47;35.35;;;;;;;;;;5096175;28;20058;-75
2022/03/23 04:45:56;;;;;;;53.53;34.35;;;;;;;;;;5099714;28;20029;-75
2022/03/23 04:48:22;;;;;;;55.25;35.53;;;;;;;;;;5100546;28;20463;-75
2022/03/23 04:50:48;;;;;;;51.03;33.20;;;;;;;;;;5087694;28;20066;-75
2022/03/23 04:53:15;;;;;;;47.22;31.05;;;;;;;;;;5094328;28;20089;-75
2022/03/23 04:55:41;;;;;;;44.40;30.80;;;;;;;;;;5103714;28;20082;-75
2022/03/23 04:58:07;;;;;;;54.35;31.98;;;;;;;;;;5098005;28;20061;-74
2022/03/23 05:00:34;;;;;;;40.85;28.98;;;;;;;;;;5093098;28;20036;-74
2022/03/23 05:03:04;;;;;;;53.90;36.70;;;;;;;;;;5076341;28;20087;-73
2022/03/23 05:05:30;;;;;;;44.70;30.55;;;;;;;;;;5094773;28;20069;-76
2022/03/23 05:07:56;;;;;;;47.03;30.27;;;;;;;;;;5072107;28;20116;-75
2022/03/23 05:10:22;;;;;;;42.00;28.73;;;;;;;;;;5099464;28;20024;-75
2022/03/23 05:12:49;;;;;;;46.55;29.02;;;;;;;;;;5099339;28;20459;-75
2022/03/23 05:15:16;;;;;;;40.60;28.48;;;;;;;;;;5091615;28;20032;-75
2022/03/23 05:17:44;;;;;;;45.33;29.02;;;;;;;;;;5099853;28;20063;-75
2022/03/23 05:20:11;;;;;;;46.33;30.02;;;;;;;;;;5103884;28;20043;-75
2022/03/23 05:22:37;;;;;;;47.50;30.95;;;;;;;;;;5099650;28;20593;-75
2022/03/23 05:25:04;;;;;;;46.45;27.88;;;;;;;;;;5096631;28;20379;-75
2022/03/23 05:27:33;;;;;;;50.13;29.13;;;;;;;;;;5086108;28;20032;-75
2022/03/23 05:29:59;;;;;;;45.65;29.73;;;;;;;;;;5097423;28;20040;-75
2022/03/23 05:32:25;;;;;;;41.22;28.60;;;;;;;;;;5089998;28;20296;-75
2022/03/23 05:34:52;;;;;;;46.05;28.77;;;;;;;;;;5096601;28;20426;-75
2022/03/23 05:37:18;;;;;;;49.03;30.20;;;;;;;;;;5082855;28;20028;-75
2022/03/23 05:39:45;;;;;;;44.35;27.90;;;;;;;;;;5094740;28;20059;-76
2022/03/23 05:42:12;;;;;;;42.22;29.17;;;;;;;;;;5096150;28;20056;-75
2022/03/23 05:44:38;;;;;;;44.55;28.25;;;;;;;;;;5087566;28;20051;-75
2022/03/23 05:47:05;;;;;;;61.20;32.80;;;;;;;;;;5083195;28;20028;-73
2022/03/23 05:49:31;;;;;;;53.42;33.05;;;;;;;;;;5093929;28;20038;-73
2022/03/23 05:51:57;;;;;;;52.30;32.17;;;;;;;;;;5089601;28;20089;-76
2022/03/23 05:54:24;;;;;;;45.30;30.40;;;;;;;;;;5092271;28;20034;-75
2022/03/23 05:56:50;;;;;;;51.22;33.25;;;;;;;;;;5086389;28;20111;-75
2022/03/23 05:59:17;;;;;;;64.38;39.17;;;;;;;;;;5087908;28;20040;-73
2022/03/23 06:01:43;;;;;;;54.15;34.55;;;;;;;;;;5081671;28;20404;-73
2022/03/23 06:04:09;;;;;;;62.60;38.35;;;;;;;;;;5082234;28;20036;-73
2022/03/23 06:06:35;;;;;;;59.92;34.70;;;;;;;;;;5081472;28;20459;-74
2022/03/23 06:09:01;;;;;;;56.60;34.63;;;;;;;;;;5091194;28;20040;-74
2022/03/23 06:11:27;;;;;;;64.78;38.03;;;;;;;;;;5083253;28;20044;-74
2022/03/23 06:13:53;;;;;;;57.28;36.92;;;;;;;;;;5098862;28;20028;-74
2022/03/23 06:16:19;;;;;;;55.47;36.45;;;;;;;;;;5097452;28;20418;-74
2022/03/23 06:18:46;;;;;;;56.38;35.97;;;;;;;;;;5084523;28;20119;-73
2022/03/23 06:21:13;;;;;;;54.80;35.30;;;;;;;;;;5094087;28;20123;-73
2022/03/23 06:23:39;;;;;;;53.70;34.22;;;;;;;;;;5095462;28;20047;-74
2022/03/23 06:26:05;;;;;;;57.35;35.28;;;;;;;;;;5086331;28;20048;-73
2022/03/23 06:28:31;;;;;;;57.15;35.15;;;;;;;;;;5103292;28;20028;-74
2022/03/23 06:31:00;;;;;;;57.92;37.33;;;;;;;;;;5097221;28;20031;-73
2022/03/23 06:33:26;;;;;;;56.90;34.22;;;;;;;;;;5098325;28;20038;-74
2022/03/23 06:35:53;;;;;;;113.28;68.40;;;;;;;;;;5101995;28;20054;-75
2022/03/23 06:38:19;;;;;;;88.45;54.63;;;;;;;;;;5104242;28;20067;-73
2022/03/23 06:40:45;;;;;;;56.67;36.25;;;;;;;;;;5096029;28;20039;-73
2022/03/23 06:43:11;;;;;;;55.20;34.90;;;;;;;;;;5089159;28;20498;-73
2022/03/23 06:45:40;;;;;;;51.28;33.65;;;;;;;;;;5094805;28;20047;-74
2022/03/23 06:48:06;;;;;;;58.38;33.78;;;;;;;;;;5065953;28;20514;-73
2022/03/23 06:50:32;;;;;;;51.00;33.03;;;;;;;;;;5085431;28;20039;-73
2022/03/23 06:52:58;;;;;;;47.75;33.00;;;;;;;;;;5088736;28;20031;-73
2022/03/23 06:55:24;;;;;;;42.92;30.42;;;;;;;;;;5101742;28;20408;-73
2022/03/23 06:57:50;;;;;;;52.05;33.10;;;;;;;;;;5060861;28;20584;-73
2022/03/23 07:00:16;;;;;;;44.70;32.13;;;;;;;;;;5095890;28;20601;-73
2022/03/23 07:02:43;;;;;;;43.42;31.92;;;;;;;;;;5098011;28;20032;-73
2022/03/23 07:05:10;;;;;;;45.08;30.52;;;;;;;;;;5095261;28;20489;-73
2022/03/23 07:07:36;;;;;;;45.95;32.50;;;;;;;;;;5098884;28;20019;-73
2022/03/23 07:10:06;;;;;;;49.95;32.47;;;;;;;;;;5097838;28;20040;-72
2022/03/23 07:12:32;;;;;;;45.45;33.28;;;;;;;;;;5093011;28;20027;-73
2022/03/23 07:14:58;;;;;;;50.42;34.60;;;;;;;;;;5095709;28;20106;-72
2022/03/23 07:17:24;;;;;;;54.22;35.25;;;;;;;;;;5092636;28;20039;-74
2022/03/23 07:19:51;;;;;;;48.88;36.83;;;;;;;;;;5098672;28;20148;-74
2022/03/23 07:22:17;;;;;;;64.82;36.30;;;;;;;;;;5083385;28;20059;-74
2022/03/23 07:24:47;;;;;;;83.60;51.65;;;;;;;;;;5074182;28;20032;-73
2022/03/23 07:27:13;;;;;;;56.22;37.17;;;;;;;;;;5094150;28;20040;-73
2022/03/23 07:29:40;;;;;;;49.85;36.63;;;;;;;;;;5100470;28;20028;-74
2022/03/23 07:32:06;;;;;;;51.35;36.53;;;;;;;;;;5091996;28;20353;-75
2022/03/23 07:34:32;;;;;;;51.67;35.15;;;;;;;;;;5079514;28;20033;-73
2022/03/23 07:36:58;;;;;;;54.42;37.20;;;;;;;;;;5093664;28;20414;-74
2022/03/23 07:39:25;;;;;;;46.50;35.33;;;;;;;;;;5092495;28;20436;-73
2022/03/23 07:41:52;;;;;;;49.63;35.42;;;;;;;;;;5100270;28;20027;-74
2022/03/23 07:44:19;;;;;;;53.30;37.67;;;;;;;;;;5095363;28;20054;-73
2022/03/23 07:46:45;;;;;;;46.05;35.05;;;;;;;;;;5094628;28;20106;-73
2022/03/23 07:49:12;;;;;;;45.95;34.72;;;;;;;;;;5069728;28;20480;-73
2022/03/23 07:51:39;;;;;;;48.75;34.92;;;;;;;;;;5096400;28;20031;-72
2022/03/23 07:54:05;;;;;;;48.90;35.08;;;;;;;;;;5090035;28;20158;-73
2022/03/23 07:56:31;;;;;;;47.22;35.83;;;;;;;;;;5085596;28;20032;-72
2022/03/23 07:58:58;;;;;;;68.97;45.67;;;;;;;;;;5076058;28;20503;-75
2022/03/23 08:01:24;;;;;;;86.75;61.33;;;;;;;;;;5080843;28;20021;-76
2022/03/23 08:03:50;;;;;;;48.22;35.70;;;;;;;;;;5079704;28;20024;-77
2022/03/23 08:06:16;;;;;;;42.47;30.08;;;;;;;;;;5083886;28;20036;-73
2022/03/23 08:08:43;;;;;;;40.42;31.63;;;;;;;;;;5079329;28;21071;-74
2022/03/23 08:11:11;;;;;;;46.97;31.80;;;;;;;;;;5085680;28;20043;-74
2022/03/23 08:13:37;;;;;;;41.72;29.00;;;;;;;;;;5087637;28;20032;-74
2022/03/23 08:16:05;;;;;;;40.78;27.65;;;;;;;;;;5092144;28;20428;-74
2022/03/23 08:18:32;;;;;;;37.58;27.67;;;;;;;;;;5091332;28;20052;-74
2022/03/23 08:20:59;;;;;;;42.25;28.48;;;;;;;;;;5076755;28;20029;-77
2022/03/23 08:23:26;;;;;;;42.95;32.00;;;;;;;;;;5083993;28;20387;-75
2022/03/23 08:25:52;;;;;;;35.92;25.13;;;;;;;;;;5089836;28;20070;-78
2022/03/23 08:28:19;;;;;;;35.45;24.50;;;;;;;;;;5100910;28;20106;-76
2022/03/23 08:30:45;;;;;;;32.97;24.85;;;;;;;;;;5099522;28;20043;-75
2022/03/23 08:33:12;;;;;;;35.17;23.98;;;;;;;;;;5090199;28;20024;-76
2022/03/23 08:35:39;;;;;;;33.88;22.83;;;;;;;;;;5094221;28;20035;-75
2022/03/23 08:38:06;;;;;;;33.35;23.90;;;;;;;;;;5099987;28;20035;-75
2022/03/23 08:40:32;;;;;;;31.52;21.88;;;;;;;;;;5094030;28;20027;-76
2022/03/23 08:42:58;;;;;;;30.98;23.77;;;;;;;;;;5077877;28;20534;-73
2022/03/23 08:45:24;;;;;;;37.15;23.63;;;;;;;;;;5069169;28;20151;-73
2022/03/23 08:47:51;;;;;;;34.10;22.27;;;;;;;;;;5096741;28;20020;-73
2022/03/23 08:50:17;;;;;;;33.90;22.13;;;;;;;;;;5099442;28;20058;-73
2022/03/23 08:52:44;;;;;;;33.42;21.20;;;;;;;;;;5093434;28;20024;-74
2022/03/23 08:55:14;;;;;;;108.43;65.22;;;;;;;;;;5073082;28;20125;-74
2022/03/23 08:57:40;;;;;;;43.78;27.20;;;;;;;;;;5085429;28;20472;-72
2022/03/23 09:00:07;;;;;;;33.92;22.02;;;;;;;;;;5095087;28;20031;-73
2022/03/23 09:02:33;;;;;;;32.67;20.67;;;;;;;;;;5083056;28;20107;-73
2022/03/23 09:04:59;;;;;;;33.35;21.20;;;;;;;;;;5083580;28;20032;-72
2022/03/23 09:07:25;;;;;;;35.65;21.95;;;;;;;;;;5103794;28;20475;-72
2022/03/23 09:09:51;;;;;;;32.90;22.02;;;;;;;;;;5078268;28;20085;-73
2022/03/23 09:12:17;;;;;;;30.83;21.45;;;;;;;;;;5092907;28;20506;-73
2022/03/23 09:14:43;;;;;;;34.70;21.75;;;;;;;;;;5092575;28;20089;-73
2022/03/23 09:17:09;;;;;;;29.40;21.75;;;;;;;;;;5092624;28;20113;-73
2022/03/23 09:19:37;;;;;;;30.98;20.17;;;;;;;;;;5074715;28;20048;-73
2022/03/23 09:22:03;;;;;;;31.45;22.85;;;;;;;;;;5088614;28;20036;-74
2022/03/23 09:24:30;;;;;;;35.28;21.00;;;;;;;;;;5090211;28;20044;-74
2022/03/23 09:26:56;;;;;;;31.85;20.58;;;;;;;;;;5068597;28;20488;-73
2022/03/23 09:29:22;;;;;;;30.55;19.33;;;;;;;;;;5074291;28;20033;-74
2022/03/23 09:31:48;;;;;;;27.40;19.33;;;;;;;;;;5096394;28;20059;-73
2022/03/23 09:34:14;;;;;;;36.30;18.20;;;;;;;;;;5092239;28;20028;-73
2022/03/23 09:39:25;;;;;;;24.73;19.05;;;;;;;;;;5092532;28;20023;-73
2022/03/23 09:41:52;;;;;;;24.55;17.73;;;;;;;;;;5091630;28;20103;-73
2022/03/23 09:44:18;;;;;;;25.38;18.00;;;;;;;;;;5093067;28;20039;-73
2022/03/23 09:46:44;;;;;;;25.70;19.23;;;;;;;;;;5086527;28;20189;-73
2022/03/23 09:49:11;;;;;;;22.58;16.55;;;;;;;;;;5095999;28;20032;-73
2022/03/23 09:51:39;;;;;;;22.42;15.55;;;;;;;;;;5083446;28;20048;-75
2022/03/23 09:54:05;;;;;;;27.88;17.52;;;;;;;;;;5079180;28;20042;-74
2022/03/23 09:56:32;;;;;;;19.08;16.13;;;;;;;;;;5085273;28;20040;-73
2022/03/23 09:58:58;;;;;;;19.55;14.55;;;;;;;;;;5082883;28;20040;-74
2022/03/23 10:01:30;;;;;;;21.02;15.68;;;;;;;;;;5085374;28;20028;-74
2022/03/23 10:04:15;;;;;;;22.75;15.80;;;;;;;;;;5083567;28;20031;-73
2022/03/23 10:06:48;;;;;;;21.33;15.25;;;;;;;;;;5085969;28;20040;-73
2022/03/23 10:09:21;;;;;;;17.90;14.23;;;;;;;;;;5110618;28;20748;-73
2022/03/23 10:12:05;;;;;;;25.05;15.57;;;;;;;;;;5085852;28;20024;-73
2022/03/23 10:14:50;;;;;;;18.40;14.38;;;;;;;;;;5103692;28;20034;-73
2022/03/23 10:17:35;;;;;;;18.60;14.57;;;;;;;;;;5089299;28;20556;-73
2022/03/23 10:20:01;;;;;;;24.83;15.80;;;;;;;;;;5095506;28;20430;-73
2022/03/23 10:22:28;;;;;;;19.17;14.60;;;;;;;;;;5092983;28;20103;-73
2022/03/23 10:24:55;;;;;;;25.98;17.00;;;;;;;;;;5089264;28;20040;-73
2022/03/23 10:27:24;;;;;;;23.75;17.02;;;;;;;;;;5097969;28;20046;-73
2022/03/23 10:29:54;;;;;;;24.13;16.05;;;;;;;;;;5072868;28;20036;-73
2022/03/23 10:32:21;;;;;;;23.92;15.50;;;;;;;;;;5082060;28;20371;-72
2022/03/23 10:34:48;;;;;;;25.52;15.80;;;;;;;;;;5090436;28;20028;-73
2022/03/23 10:37:15;;;;;;;25.02;16.00;;;;;;;;;;5086324;28;20048;-73
2022/03/23 10:39:41;;;;;;;24.77;15.10;;;;;;;;;;5080969;28;20039;-74
2022/03/23 10:42:13;;;;;;;22.05;15.23;;;;;;;;;;5076187;28;20082;-74
2022/03/23 10:44:39;;;;;;;23.55;14.23;;;;;;;;;;5078648;28;20071;-74
2022/03/23 10:47:06;;;;;;;21.42;13.70;;;;;;;;;;5090922;28;20491;-74
2022/03/23 10:49:36;;;;;;;23.27;12.38;;;;;;;;;;5073931;28;20472;-74
2022/03/23 10:52:13;;;;;;;20.70;11.23;;;;;;;;;;5094518;28;20035;-74
2022/03/23 10:54:40;;;;;;;21.02;11.82;;;;;;;;;;5087538;28;20923;-73
2022/03/23 10:57:06;;;;;;;28.08;12.32;;;;;;;;;;5092182;28;20736;-73
2022/03/23 10:59:32;;;;;;;25.35;12.63;;;;;;;;;;5088725;28;20491;-73
2022/03/23 11:02:02;;;;;;;26.60;11.98;;;;;;;;;;5081298;28;20472;-74
2022/03/23 11:04:30;;;;;;;21.52;10.95;;;;;;;;;;5094662;28;20038;-74
2022/03/23 11:06:58;;;;;;;30.08;12.68;;;;;;;;;;5091901;28;20499;-74
2022/03/23 11:18:15;;;;;;;29.05;9.35;;;;;;;;;;5088635;28;20064;-74
2022/03/23 11:20:41;;;;;;;26.45;11.38;;;;;;;;;;5077791;28;20514;-74
2022/03/23 11:23:28;;;;;;;21.25;10.57;;;;;;;;;;5085546;28;20035;-75
2022/03/23 11:26:02;;;;;;;28.95;7.72;;;;;;;;;;5072267;28;20111;-73
2022/03/23 11:28:38;;;;;;;22.10;9.25;;;;;;;;;;5081303;28;20054;-74
2022/03/23 11:31:05;;;;;;;28.10;9.70;;;;;;;;;;5097103;27;20483;-75
2022/03/23 11:33:32;;;;;;;24.90;10.95;;;;;;;;;;5080978;28;20123;-74
2022/03/23 11:35:59;;;;;;;24.83;11.68;;;;;;;;;;5057372;28;20081;-74
2022/03/23 11:38:26;;;;;;;32.80;12.07;;;;;;;;;;5090411;28;20435;-74
2022/03/23 11:40:53;;;;;;;24.50;12.23;;;;;;;;;;5084873;28;20028;-74
2022/03/23 11:43:20;;;;;;;29.70;12.70;;;;;;;;;;5098668;28;20425;-74
2022/03/23 11:45:47;;;;;;;27.63;12.45;;;;;;;;;;5079275;28;20043;-74
2022/03/23 11:48:32;;;;;;;24.77;14.07;;;;;;;;;;5079493;28;20055;-73
2022/03/23 11:51:17;;;;;;;23.38;11.73;;;;;;;;;;5063861;28;20024;-78
2022/03/23 11:54:00;;;;;;;32.03;11.95;;;;;;;;;;5082279;28;20033;-74
2022/03/23 11:56:28;;;;;;;24.92;11.27;;;;;;;;;;5084797;28;20048;-75
2022/03/23 11:58:54;;;;;;;29.77;12.00;;;;;;;;;;5073041;28;20494;-75
2022/03/23 12:01:20;;;;;;;17.60;10.73;;;;;;;;;;5089181;28;20063;-74
2022/03/23 12:03:55;;;;;;;20.92;11.80;;;;;;;;;;5083189;28;20106;-74
2022/03/23 12:06:36;;;;;;;20.85;12.65;;;;;;;;;;5096401;28;20063;-74
2022/03/23 12:09:03;;;;;;;22.55;12.65;;;;;;;;;;5089701;28;20142;-74
2022/03/23 12:11:44;;;;;;;23.45;12.45;;;;;;;;;;5081349;28;20081;-74
2022/03/23 12:14:27;;;;;;;21.87;10.40;;;;;;;;;;5085155;28;20464;-74
2022/03/23 12:16:53;;;;;;;23.58;6.78;;;;;;;;;;5090485;28;20419;-74
2022/03/23 12:19:23;;;;;;;23.27;7.07;;;;;;;;;;5074080;28;20028;-74
2022/03/23 12:21:58;;;;;;;18.67;7.80;;;;;;;;;;5089740;28;20115;-74
2022/03/23 12:24:33;;;;;;;29.50;8.70;;;;;;;;;;5087533;28;20038;-74
2022/03/23 12:27:01;;;;;;;27.33;7.53;;;;;;;;;;5072915;28;20464;-74
2022/03/23 12:29:33;;;;;;;11.68;5.40;;;;;;;;;;5080937;28;20031;-75
2022/03/23 12:32:07;;;;;;;21.52;7.25;;;;;;;;;;5090920;28;20475;-74
2022/03/23 12:34:33;;;;;;;16.60;7.72;;;;;;;;;;5084711;28;20387;-74
2022/03/23 12:37:09;;;;;;;19.63;7.72;;;;;;;;;;5076286;28;20036;-74
2022/03/23 12:39:35;;;;;;;22.90;8.70;;;;;;;;;;5090452;28;20071;-74
2022/03/23 12:42:17;;;;;;;30.85;9.88;;;;;;;;;;5093793;28;20028;-74
2022/03/23 12:44:45;;;;;;;25.92;9.55;;;;;;;;;;5086446;28;20112;-79
2022/03/23 12:47:13;;;;;;;15.40;8.43;;;;;;;;;;5084680;28;20391;-75
2022/03/23 12:58:03;;;;;;;22.77;7.18;;;;;;;;;;5079988;28;20043;-74
2022/03/23 13:00:30;;;;;;;21.67;7.80;;;;;;;;;;5092979;28;20269;-74
2022/03/23 13:03:08;;;;;;;16.10;7.13;;;;;;;;;;5092598;28;20147;-74
2022/03/23 13:05:35;;;;;;;34.33;18.38;;;;;;;;;;5104101;28;20032;-74
2022/03/23 13:08:02;;;;;;;21.95;8.23;;;;;;;;;;5090369;28;20024;-74
2022/03/23 13:10:28;;;;;;;17.65;7.78;;;;;;;;;;5109315;27;20440;-75
2022/03/23 13:13:09;;;;;;;18.35;7.43;;;;;;;;;;5092874;28;20024;-75
2022/03/23 13:15:35;;;;;;;22.17;7.90;;;;;;;;;;5097525;28;20028;-75
2022/03/23 13:18:01;;;;;;;20.27;8.10;;;;;;;;;;5084414;28;20057;-75
2022/03/23 13:20:31;;;;;;;25.55;7.93;;;;;;;;;;5073343;28;20032;-75
2022/03/23 13:22:57;;;;;;;18.58;7.75;;;;;;;;;;5083683;28;20454;-75
2022/03/23 13:25:23;;;;;;;15.85;8.15;;;;;;;;;;5091915;28;20150;-75
2022/03/23 13:27:49;;;;;;;16.65;8.75;;;;;;;;;;5092038;28;20476;-72
2022/03/23 13:30:18;;;;;;;19.27;8.95;;;;;;;;;;5104963;28;20364;-71
2022/03/23 13:32:49;;;;;;;22.10;8.50;;;;;;;;;;5092214;28;20445;-71
2022/03/23 13:35:19;;;;;;;23.83;7.90;;;;;;;;;;5084857;28;20044;-72
2022/03/23 13:37:55;;;;;;;17.25;6.88;;;;;;;;;;5081499;28;20051;-71
2022/03/23 13:40:21;;;;;;;15.23;7.88;;;;;;;;;;5093883;28;20024;-72
2022/03/23 13:45:35;;;;;;;21.55;7.57;;;;;;;;;;5092731;28;20505;-73
2022/03/23 13:48:06;;;;;;;24.40;7.97;;;;;;;;;;5066340;28;20019;-73
2022/03/23 13:50:32;;;;;;;22.38;6.03;;;;;;;;;;5091905;28;20032;-73
2022/03/23 13:52:58;;;;;;;22.67;5.75;;;;;;;;;;5094389;28;20053;-74
2022/03/23 13:55:25;;;;;;;25.38;6.13;;;;;;;;;;5095148;28;20032;-74
2022/03/23 13:57:51;;;;;;;18.50;6.28;;;;;;;;;;5091107;28;20076;-73
2022/03/23 14:00:25;;;;;;;22.02;6.57;;;;;;;;;;5092870;28;20037;-73
2022/03/23 14:02:54;;;;;;;26.20;7.63;;;;;;;;;;5086956;28;20060;-75
2022/03/23 14:05:21;;;;;;;19.25;5.22;;;;;;;;;;5089745;28;20067;-73
2022/03/23 14:07:49;;;;;;;13.88;5.97;;;;;;;;;;5106110;28;20080;-73
2022/03/23 14:10:15;;;;;;;20.73;6.47;;;;;;;;;;5113231;28;20055;-73
2022/03/23 14:12:41;;;;;;;17.27;6.43;;;;;;;;;;5098706;28;20028;-75
2022/03/23 14:15:07;;;;;;;20.88;6.13;;;;;;;;;;5078185;28;20044;-74
2022/03/23 14:17:37;;;;;;;18.75;5.63;;;;;;;;;;5094471;28;20164;-74
2022/03/23 14:20:05;;;;;;;23.17;5.70;;;;;;;;;;5085722;28;20372;-74
2022/03/23 14:22:32;;;;;;;15.98;7.20;;;;;;;;;;5084736;28;20029;-73
2022/03/23 14:24:59;;;;;;;30.45;7.80;;;;;;;;;;5083718;28;20028;-74
2022/03/23 14:27:26;;;;;;;20.80;6.95;;;;;;;;;;5073764;28;20559;-74
2022/03/23 14:30:07;;;;;;;28.48;9.98;;;;;;;;;;5081796;28;20032;-74
2022/03/23 14:32:43;;;;;;;23.15;8.77;;;;;;;;;;5083698;28;20046;-76
2022/03/23 14:35:14;;;;;;;21.15;7.63;;;;;;;;;;5093155;28;20040;-80
2022/03/23 14:37:41;;;;;;;24.73;9.07;;;;;;;;;;5087133;28;20425;-79
2022/03/23 14:40:28;;;;;;;15.32;7.75;;;;;;;;;;5112072;28;20107;-81
2022/03/23 14:42:55;;;;;;;17.48;7.13;;;;;;;;;;5101400;28;20073;-78
2022/03/23 14:45:31;;;;;;;23.40;7.00;;;;;;;;;;5092466;28;20499;-74
2022/03/23 14:47:59;;;;;;;15.52;6.63;;;;;;;;;;5081662;28;20085;-74
2022/03/23 14:50:26;;;;;;;19.98;7.38;;;;;;;;;;5092481;28;20375;-74
2022/03/23 14:52:53;;;;;;;27.73;6.95;;;;;;;;;;5085915;28;20073;-74
2022/03/23 14:55:20;;;;;;;24.98;7.00;;;;;;;;;;5094635;28;20043;-74